sensor_id;sensor_type;location;lat;lon;timestamp;P1;durP1;ratioP1;P2;durP2;ratioP2
25187;SDS011;13141;50.414;8.050;2023-05-07T00:00:12;0.20;;;0.20;;
25187;SDS011;13141;50.414;8.050;2023-05-07T00:02:38;0.10;;;0.10;;
25187;SDS011;13141;50.414;8.050;2023-05-07T00:05:05;0.15;;;0.15;;
25187;SDS011;13141;50.414;8.050;2023-05-07T00:07:32;0.10;;;0.10;;
25187;SDS011;13141;50.414;8.050;2023-05-07T00:09:57;0.20;;;0.20;;
25187;SDS011;13141;50.414;8.050;2023-05-07T00:12:23;0.10;;;0.10;;
25187;SDS011;13141;50.414;8.050;2023-05-07T00:14:48;0.10;;;0.10;;
25187;SDS011;13141;50.414;8.050;2023-05-07T00:17:14;0.15;;;0.15;;
25187;SDS011;13141;50.414;8.050;2023-05-07T00:19:40;0.10;;;0.10;;
25187;SDS011;13141;50.414;8.050;2023-05-07T00:22:07;0.10;;;0.10;;
25187;SDS011;13141;50.414;8.050;2023-05-07T00:24:33;0.10;;;0.10;;
25187;SDS011;13141;50.414;8.050;2023-05-07T00:26:58;0.20;;;0.20;;
25187;SDS011;13141;50.414;8.050;2023-05-07T00:29:24;0.20;;;0.20;;
25187;SDS011;13141;50.414;8.050;2023-05-07T00:31:49;0.10;;;0.10;;
25187;SDS011;13141;50.414;8.050;2023-05-07T00:34:15;0.10;;;0.10;;
25187;SDS011;13141;50.414;8.050;2023-05-07T00:36:41;0.10;;;0.10;;
25187;SDS011;13141;50.414;8.050;2023-05-07T00:39:08;0.10;;;0.10;;
25187;SDS011;13141;50.414;8.050;2023-05-07T00:41:33;0.10;;;0.10;;
25187;SDS011;13141;50.414;8.050;2023-05-07T00:43:59;0.20;;;0.20;;
25187;SDS011;13141;50.414;8.050;2023-05-07T00:46:25;0.10;;;0.10;;
25187;SDS011;13141;50.414;8.050;2023-05-07T00:48:50;0.20;;;0.20;;
25187;SDS011;13141;50.414;8.050;2023-05-07T00:51:16;0.10;;;0.10;;
25187;SDS011;13141;50.414;8.050;2023-05-07T00:53:42;0.10;;;0.10;;
25187;SDS011;13141;50.414;8.050;2023-05-07T00:56:22;0.10;;;0.10;;
25187;SDS011;13141;50.414;8.050;2023-05-07T00:58:50;0.10;;;0.10;;
25187;SDS011;13141;50.414;8.050;2023-05-07T01:01:31;0.10;;;0.10;;
25187;SDS011;13141;50.414;8.050;2023-05-07T01:04:04;0.10;;;0.10;;
25187;SDS011;13141;50.414;8.050;2023-05-07T01:06:35;0.17;;;0.17;;
25187;SDS011;13141;50.414;8.050;2023-05-07T01:09:08;0.20;;;0.20;;
25187;SDS011;13141;50.414;8.050;2023-05-07T01:11:37;0.10;;;0.10;;
25187;SDS011;13141;50.414;8.050;2023-05-07T01:14:07;0.20;;;0.20;;
25187;SDS011;13141;50.414;8.050;2023-05-07T01:16:48;0.10;;;0.10;;
25187;SDS011;13141;50.414;8.050;2023-05-07T01:19:16;0.10;;;0.10;;
25187;SDS011;13141;50.414;8.050;2023-05-07T01:21:43;0.20;;;0.20;;
25187;SDS011;13141;50.414;8.050;2023-05-07T01:24:15;0.10;;;0.10;;
25187;SDS011;13141;50.414;8.050;2023-05-07T01:26:43;0.10;;;0.10;;
25187;SDS011;13141;50.414;8.050;2023-05-07T01:29:11;0.17;;;0.17;;
25187;SDS011;13141;50.414;8.050;2023-05-07T01:31:39;0.10;;;0.10;;
25187;SDS011;13141;50.414;8.050;2023-05-07T01:34:06;0.15;;;0.15;;
25187;SDS011;13141;50.414;8.050;2023-05-07T01:36:34;0.10;;;0.10;;
25187;SDS011;13141;50.414;8.050;2023-05-07T01:39:05;0.10;;;0.10;;
25187;SDS011;13141;50.414;8.050;2023-05-07T01:41:40;0.10;;;0.10;;
25187;SDS011;13141;50.414;8.050;2023-05-07T01:44:06;0.10;;;0.10;;
25187;SDS011;13141;50.414;8.050;2023-05-07T01:46:35;0.20;;;0.20;;
25187;SDS011;13141;50.414;8.050;2023-05-07T01:49:02;0.10;;;0.10;;
25187;SDS011;13141;50.414;8.050;2023-05-07T01:51:30;0.10;;;0.10;;
25187;SDS011;13141;50.414;8.050;2023-05-07T01:53:58;0.20;;;0.20;;
25187;SDS011;13141;50.414;8.050;2023-05-07T01:56:29;0.20;;;0.20;;
25187;SDS011;13141;50.414;8.050;2023-05-07T01:59:02;0.17;;;0.17;;
25187;SDS011;13141;50.414;8.050;2023-05-07T02:01:29;0.10;;;0.10;;
25187;SDS011;13141;50.414;8.050;2023-05-07T02:03:57;0.20;;;0.20;;
25187;SDS011;13141;50.414;8.050;2023-05-07T02:06:25;0.10;;;0.10;;
25187;SDS011;13141;50.414;8.050;2023-05-07T02:08:58;0.20;;;0.20;;
25187;SDS011;13141;50.414;8.050;2023-05-07T02:11:24;0.10;;;0.10;;
25187;SDS011;13141;50.414;8.050;2023-05-07T02:13:49;0.20;;;0.20;;
25187;SDS011;13141;50.414;8.050;2023-05-07T02:16:19;0.10;;;0.10;;
25187;SDS011;13141;50.414;8.050;2023-05-07T02:18:45;0.10;;;0.10;;
25187;SDS011;13141;50.414;8.050;2023-05-07T02:21:15;0.10;;;0.10;;
25187;SDS011;13141;50.414;8.050;2023-05-07T02:23:41;0.20;;;0.20;;
25187;SDS011;13141;50.414;8.050;2023-05-07T02:26:13;0.10;;;0.10;;
25187;SDS011;13141;50.414;8.050;2023-05-07T02:28:40;0.10;;;0.10;;
25187;SDS011;13141;50.414;8.050;2023-05-07T02:31:12;0.10;;;0.10;;
25187;SDS011;13141;50.414;8.050;2023-05-07T02:33:44;0.10;;;0.10;;
25187;SDS011;13141;50.414;8.050;2023-05-07T02:36:11;0.10;;;0.10;;
25187;SDS011;13141;50.414;8.050;2023-05-07T02:38:37;0.17;;;0.17;;
25187;SDS011;13141;50.414;8.050;2023-05-07T02:41:03;0.15;;;0.15;;
25187;SDS011;13141;50.414;8.050;2023-05-07T02:43:35;0.10;;;0.10;;
25187;SDS011;13141;50.414;8.050;2023-05-07T02:46:01;0.20;;;0.20;;
25187;SDS011;13141;50.414;8.050;2023-05-07T02:48:28;0.10;;;0.10;;
25187;SDS011;13141;50.414;8.050;2023-05-07T02:50:55;0.10;;;0.10;;
25187;SDS011;13141;50.414;8.050;2023-05-07T02:53:21;0.10;;;0.10;;
25187;SDS011;13141;50.414;8.050;2023-05-07T02:55:46;0.10;;;0.10;;
25187;SDS011;13141;50.414;8.050;2023-05-07T02:58:12;0.20;;;0.20;;
25187;SDS011;13141;50.414;8.050;2023-05-07T03:00:40;0.10;;;0.10;;
25187;SDS011;13141;50.414;8.050;2023-05-07T03:03:19;0.13;;;0.13;;
25187;SDS011;13141;50.414;8.050;2023-05-07T03:05:48;0.10;;;0.10;;
25187;SDS011;13141;50.414;8.050;2023-05-07T03:11:19;0.20;;;0.20;;
25187;SDS011;13141;50.414;8.050;2023-05-07T03:13:47;0.10;;;0.10;;
25187;SDS011;13141;50.414;8.050;2023-05-07T03:16:12;0.10;;;0.10;;
25187;SDS011;13141;50.414;8.050;2023-05-07T03:18:40;0.15;;;0.15;;
25187;SDS011;13141;50.414;8.050;2023-05-07T03:21:06;0.10;;;0.10;;
25187;SDS011;13141;50.414;8.050;2023-05-07T03:23:34;0.10;;;0.10;;
25187;SDS011;13141;50.414;8.050;2023-05-07T03:44:31;0.10;;;0.10;;
25187;SDS011;13141;50.414;8.050;2023-05-07T03:46:57;0.10;;;0.10;;
25187;SDS011;13141;50.414;8.050;2023-05-07T03:49:23;0.10;;;0.10;;
25187;SDS011;13141;50.414;8.050;2023-05-07T03:51:48;0.10;;;0.10;;
25187;SDS011;13141;50.414;8.050;2023-05-07T03:54:14;0.10;;;0.10;;
25187;SDS011;13141;50.414;8.050;2023-05-07T03:56:40;0.10;;;0.10;;
25187;SDS011;13141;50.414;8.050;2023-05-07T03:59:05;0.10;;;0.10;;
25187;SDS011;13141;50.414;8.050;2023-05-07T04:01:33;0.20;;;0.20;;
25187;SDS011;13141;50.414;8.050;2023-05-07T04:03:58;0.20;;;0.20;;
25187;SDS011;13141;50.414;8.050;2023-05-07T04:06:24;0.10;;;0.10;;
25187;SDS011;13141;50.414;8.050;2023-05-07T04:08:50;0.20;;;0.20;;
25187;SDS011;13141;50.414;8.050;2023-05-07T04:11:15;0.10;;;0.10;;
25187;SDS011;13141;50.414;8.050;2023-05-07T04:13:41;0.10;;;0.10;;
25187;SDS011;13141;50.414;8.050;2023-05-07T04:16:07;0.10;;;0.10;;
25187;SDS011;13141;50.414;8.050;2023-05-07T04:18:34;0.20;;;0.20;;
25187;SDS011;13141;50.414;8.050;2023-05-07T04:21:00;0.10;;;0.10;;
25187;SDS011;13141;50.414;8.050;2023-05-07T04:23:26;0.10;;;0.10;;
25187;SDS011;13141;50.414;8.050;2023-05-07T04:25:51;0.20;;;0.20;;
25187;SDS011;13141;50.414;8.050;2023-05-07T04:28:17;0.10;;;0.10;;
25187;SDS011;13141;50.414;8.050;2023-05-07T04:30:43;0.10;;;0.10;;
25187;SDS011;13141;50.414;8.050;2023-05-07T04:33:08;0.10;;;0.10;;
25187;SDS011;13141;50.414;8.050;2023-05-07T04:35:36;0.10;;;0.10;;
25187;SDS011;13141;50.414;8.050;2023-05-07T04:38:01;0.10;;;0.10;;
25187;SDS011;13141;50.414;8.050;2023-05-07T04:40:27;0.10;;;0.10;;
25187;SDS011;13141;50.414;8.050;2023-05-07T04:42:53;0.20;;;0.20;;
25187;SDS011;13141;50.414;8.050;2023-05-07T04:45:18;0.10;;;0.10;;
25187;SDS011;13141;50.414;8.050;2023-05-07T04:47:44;0.10;;;0.10;;
25187;SDS011;13141;50.414;8.050;2023-05-07T04:50:10;0.10;;;0.10;;
25187;SDS011;13141;50.414;8.050;2023-05-07T04:52:37;0.10;;;0.10;;
25187;SDS011;13141;50.414;8.050;2023-05-07T04:55:03;0.13;;;0.13;;
25187;SDS011;13141;50.414;8.050;2023-05-07T04:57:29;0.10;;;0.10;;
25187;SDS011;13141;50.414;8.050;2023-05-07T04:59:55;0.10;;;0.10;;
25187;SDS011;13141;50.414;8.050;2023-05-07T05:02:22;0.10;;;0.10;;
25187;SDS011;13141;50.414;8.050;2023-05-07T05:04:47;0.10;;;0.10;;
25187;SDS011;13141;50.414;8.050;2023-05-07T05:07:13;0.20;;;0.20;;
25187;SDS011;13141;50.414;8.050;2023-05-07T05:09:40;0.10;;;0.10;;
25187;SDS011;13141;50.414;8.050;2023-05-07T05:12:06;0.10;;;0.10;;
25187;SDS011;13141;50.414;8.050;2023-05-07T05:14:31;0.10;;;0.10;;
25187;SDS011;13141;50.414;8.050;2023-05-07T05:16:57;0.17;;;0.17;;
25187;SDS011;13141;50.414;8.050;2023-05-07T05:19:22;0.10;;;0.10;;
25187;SDS011;13141;50.414;8.050;2023-05-07T05:21:48;0.10;;;0.10;;
25187;SDS011;13141;50.414;8.050;2023-05-07T05:24:14;0.10;;;0.10;;
25187;SDS011;13141;50.414;8.050;2023-05-07T05:26:41;0.10;;;0.10;;
25187;SDS011;13141;50.414;8.050;2023-05-07T05:29:06;0.10;;;0.10;;
25187;SDS011;13141;50.414;8.050;2023-05-07T05:31:32;0.10;;;0.10;;
25187;SDS011;13141;50.414;8.050;2023-05-07T05:33:58;0.20;;;0.20;;
25187;SDS011;13141;50.414;8.050;2023-05-07T05:36:23;0.10;;;0.10;;
25187;SDS011;13141;50.414;8.050;2023-05-07T05:38:49;0.10;;;0.10;;
25187;SDS011;13141;50.414;8.050;2023-05-07T05:41:15;0.10;;;0.10;;
25187;SDS011;13141;50.414;8.050;2023-05-07T05:43:42;0.10;;;0.10;;
25187;SDS011;13141;50.414;8.050;2023-05-07T05:46:07;0.10;;;0.10;;
25187;SDS011;13141;50.414;8.050;2023-05-07T05:48:33;0.10;;;0.10;;
25187;SDS011;13141;50.414;8.050;2023-05-07T05:50:59;0.20;;;0.20;;
25187;SDS011;13141;50.414;8.050;2023-05-07T05:53:25;0.10;;;0.10;;
25187;SDS011;13141;50.414;8.050;2023-05-07T05:55:50;0.10;;;0.10;;
25187;SDS011;13141;50.414;8.050;2023-05-07T05:58:16;0.10;;;0.10;;
25187;SDS011;13141;50.414;8.050;2023-05-07T06:00:43;0.10;;;0.10;;
25187;SDS011;13141;50.414;8.050;2023-05-07T06:03:09;0.10;;;0.10;;
25187;SDS011;13141;50.414;8.050;2023-05-07T06:05:35;0.10;;;0.10;;
25187;SDS011;13141;50.414;8.050;2023-05-07T06:08:00;0.20;;;0.20;;
25187;SDS011;13141;50.414;8.050;2023-05-07T06:10:26;0.10;;;0.10;;
25187;SDS011;13141;50.414;8.050;2023-05-07T06:12:52;0.10;;;0.10;;
25187;SDS011;13141;50.414;8.050;2023-05-07T06:15:18;0.10;;;0.10;;
25187;SDS011;13141;50.414;8.050;2023-05-07T06:17:45;0.10;;;0.10;;
25187;SDS011;13141;50.414;8.050;2023-05-07T06:20:10;0.10;;;0.10;;
25187;SDS011;13141;50.414;8.050;2023-05-07T06:22:36;0.10;;;0.10;;
25187;SDS011;13141;50.414;8.050;2023-05-07T06:25:02;0.10;;;0.10;;
25187;SDS011;13141;50.414;8.050;2023-05-07T06:27:27;0.10;;;0.10;;
25187;SDS011;13141;50.414;8.050;2023-05-07T06:29:53;0.20;;;0.20;;
25187;SDS011;13141;50.414;8.050;2023-05-07T06:32:19;0.10;;;0.10;;
25187;SDS011;13141;50.414;8.050;2023-05-07T06:34:46;0.10;;;0.10;;
25187;SDS011;13141;50.414;8.050;2023-05-07T06:37:11;0.15;;;0.15;;
25187;SDS011;13141;50.414;8.050;2023-05-07T06:39:37;0.20;;;0.20;;
25187;SDS011;13141;50.414;8.050;2023-05-07T06:42:03;0.20;;;0.20;;
25187;SDS011;13141;50.414;8.050;2023-05-07T06:44:29;0.10;;;0.10;;
25187;SDS011;13141;50.414;8.050;2023-05-07T06:46:54;0.10;;;0.10;;
25187;SDS011;13141;50.414;8.050;2023-05-07T06:49:20;0.10;;;0.10;;
25187;SDS011;13141;50.414;8.050;2023-05-07T06:51:47;0.10;;;0.10;;
25187;SDS011;13141;50.414;8.050;2023-05-07T06:54:12;0.10;;;0.10;;
25187;SDS011;13141;50.414;8.050;2023-05-07T06:56:38;0.10;;;0.10;;
25187;SDS011;13141;50.414;8.050;2023-05-07T06:59:04;0.20;;;0.20;;
25187;SDS011;13141;50.414;8.050;2023-05-07T07:01:29;0.10;;;0.10;;
25187;SDS011;13141;50.414;8.050;2023-05-07T07:03:55;0.13;;;0.13;;
25187;SDS011;13141;50.414;8.050;2023-05-07T07:06:21;0.10;;;0.10;;
25187;SDS011;13141;50.414;8.050;2023-05-07T07:08:48;0.10;;;0.10;;
25187;SDS011;13141;50.414;8.050;2023-05-07T07:11:13;0.10;;;0.10;;
25187;SDS011;13141;50.414;8.050;2023-05-07T07:13:40;0.13;;;0.13;;
25187;SDS011;13141;50.414;8.050;2023-05-07T07:16:05;0.17;;;0.17;;
25187;SDS011;13141;50.414;8.050;2023-05-07T07:18:31;0.10;;;0.10;;
25187;SDS011;13141;50.414;8.050;2023-05-07T07:20:57;0.10;;;0.10;;
25187;SDS011;13141;50.414;8.050;2023-05-07T07:23:23;0.10;;;0.10;;
25187;SDS011;13141;50.414;8.050;2023-05-07T07:25:50;0.10;;;0.10;;
25187;SDS011;13141;50.414;8.050;2023-05-07T07:28:16;0.20;;;0.20;;
25187;SDS011;13141;50.414;8.050;2023-05-07T07:30:42;0.20;;;0.20;;
25187;SDS011;13141;50.414;8.050;2023-05-07T07:33:08;0.20;;;0.20;;
25187;SDS011;13141;50.414;8.050;2023-05-07T07:35:34;0.10;;;0.10;;
25187;SDS011;13141;50.414;8.050;2023-05-07T07:38:00;0.17;;;0.17;;
25187;SDS011;13141;50.414;8.050;2023-05-07T07:40:26;0.13;;;0.13;;
25187;SDS011;13141;50.414;8.050;2023-05-07T07:42:53;0.10;;;0.10;;
25187;SDS011;13141;50.414;8.050;2023-05-07T07:45:19;0.10;;;0.10;;
25187;SDS011;13141;50.414;8.050;2023-05-07T07:47:45;0.20;;;0.20;;
25187;SDS011;13141;50.414;8.050;2023-05-07T07:50:11;0.10;;;0.10;;
25187;SDS011;13141;50.414;8.050;2023-05-07T07:52:37;0.10;;;0.10;;
25187;SDS011;13141;50.414;8.050;2023-05-07T07:55:03;0.10;;;0.10;;
25187;SDS011;13141;50.414;8.050;2023-05-07T07:57:29;0.10;;;0.10;;
25187;SDS011;13141;50.414;8.050;2023-05-07T07:59:57;0.20;;;0.20;;
25187;SDS011;13141;50.414;8.050;2023-05-07T08:02:22;0.10;;;0.10;;
25187;SDS011;13141;50.414;8.050;2023-05-07T08:04:49;0.20;;;0.20;;
25187;SDS011;13141;50.414;8.050;2023-05-07T08:07:15;0.10;;;0.10;;
25187;SDS011;13141;50.414;8.050;2023-05-07T08:09:41;0.10;;;0.10;;
25187;SDS011;13141;50.414;8.050;2023-05-07T08:12:06;0.20;;;0.20;;
25187;SDS011;13141;50.414;8.050;2023-05-07T08:14:32;0.20;;;0.20;;
25187;SDS011;13141;50.414;8.050;2023-05-07T08:17:00;0.20;;;0.20;;
25187;SDS011;13141;50.414;8.050;2023-05-07T08:19:25;0.20;;;0.20;;
25187;SDS011;13141;50.414;8.050;2023-05-07T08:21:51;0.20;;;0.20;;
25187;SDS011;13141;50.414;8.050;2023-05-07T08:24:17;0.10;;;0.10;;
25187;SDS011;13141;50.414;8.050;2023-05-07T08:26:43;0.13;;;0.13;;
25187;SDS011;13141;50.414;8.050;2023-05-07T08:29:09;0.20;;;0.20;;
25187;SDS011;13141;50.414;8.050;2023-05-07T08:31:35;0.10;;;0.10;;
25187;SDS011;13141;50.414;8.050;2023-05-07T08:34:02;0.20;;;0.20;;
25187;SDS011;13141;50.414;8.050;2023-05-07T08:36:28;0.10;;;0.10;;
25187;SDS011;13141;50.414;8.050;2023-05-07T08:38:54;0.20;;;0.20;;
25187;SDS011;13141;50.414;8.050;2023-05-07T08:41:20;0.15;;;0.15;;
25187;SDS011;13141;50.414;8.050;2023-05-07T08:43:47;0.20;;;0.20;;
25187;SDS011;13141;50.414;8.050;2023-05-07T08:46:16;0.10;;;0.10;;
25187;SDS011;13141;50.414;8.050;2023-05-07T08:48:42;0.13;;;0.13;;
25187;SDS011;13141;50.414;8.050;2023-05-07T08:51:12;0.10;;;0.10;;
25187;SDS011;13141;50.414;8.050;2023-05-07T08:53:38;0.10;;;0.10;;
25187;SDS011;13141;50.414;8.050;2023-05-07T08:56:06;0.20;;;0.20;;
25187;SDS011;13141;50.414;8.050;2023-05-07T08:58:33;0.20;;;0.20;;
25187;SDS011;13141;50.414;8.050;2023-05-07T09:00:58;0.20;;;0.20;;
25187;SDS011;13141;50.414;8.050;2023-05-07T09:03:27;0.10;;;0.10;;
25187;SDS011;13141;50.414;8.050;2023-05-07T09:05:53;0.20;;;0.20;;
25187;SDS011;13141;50.414;8.050;2023-05-07T09:08:23;0.20;;;0.20;;
25187;SDS011;13141;50.414;8.050;2023-05-07T09:10:50;0.10;;;0.10;;
25187;SDS011;13141;50.414;8.050;2023-05-07T09:13:17;0.10;;;0.10;;
25187;SDS011;13141;50.414;8.050;2023-05-07T09:15:42;0.20;;;0.20;;
25187;SDS011;13141;50.414;8.050;2023-05-07T09:18:08;0.20;;;0.20;;
25187;SDS011;13141;50.414;8.050;2023-05-07T09:20:36;0.10;;;0.10;;
25187;SDS011;13141;50.414;8.050;2023-05-07T09:23:01;0.15;;;0.15;;
25187;SDS011;13141;50.414;8.050;2023-05-07T09:25:29;0.20;;;0.20;;
25187;SDS011;13141;50.414;8.050;2023-05-07T09:27:56;0.20;;;0.20;;
25187;SDS011;13141;50.414;8.050;2023-05-07T09:30:22;0.20;;;0.20;;
25187;SDS011;13141;50.414;8.050;2023-05-07T09:32:47;0.28;;;0.28;;
25187;SDS011;13141;50.414;8.050;2023-05-07T09:35:17;0.20;;;0.20;;
25187;SDS011;13141;50.414;8.050;2023-05-07T09:37:43;0.10;;;0.10;;
25187;SDS011;13141;50.414;8.050;2023-05-07T09:40:09;0.20;;;0.20;;
25187;SDS011;13141;50.414;8.050;2023-05-07T09:42:47;0.15;;;0.15;;
25187;SDS011;13141;50.414;8.050;2023-05-07T09:45:13;0.10;;;0.10;;
25187;SDS011;13141;50.414;8.050;2023-05-07T09:47:39;0.20;;;0.20;;
25187;SDS011;13141;50.414;8.050;2023-05-07T09:50:08;0.20;;;0.20;;
25187;SDS011;13141;50.414;8.050;2023-05-07T09:52:35;0.28;;;0.28;;
25187;SDS011;13141;50.414;8.050;2023-05-07T09:55:01;0.20;;;0.20;;
25187;SDS011;13141;50.414;8.050;2023-05-07T09:57:28;0.17;;;0.17;;
25187;SDS011;13141;50.414;8.050;2023-05-07T09:59:57;0.20;;;0.20;;
25187;SDS011;13141;50.414;8.050;2023-05-07T10:02:24;0.20;;;0.20;;
25187;SDS011;13141;50.414;8.050;2023-05-07T10:04:54;0.20;;;0.20;;
25187;SDS011;13141;50.414;8.050;2023-05-07T10:07:20;0.13;;;0.13;;
25187;SDS011;13141;50.414;8.050;2023-05-07T10:09:47;0.17;;;0.17;;
25187;SDS011;13141;50.414;8.050;2023-05-07T10:12:15;0.13;;;0.13;;
25187;SDS011;13141;50.414;8.050;2023-05-07T10:14:42;0.20;;;0.20;;
25187;SDS011;13141;50.414;8.050;2023-05-07T10:17:10;0.20;;;0.20;;
25187;SDS011;13141;50.414;8.050;2023-05-07T10:19:38;0.20;;;0.20;;
25187;SDS011;13141;50.414;8.050;2023-05-07T10:22:05;0.30;;;0.30;;
25187;SDS011;13141;50.414;8.050;2023-05-07T10:24:31;0.20;;;0.20;;
25187;SDS011;13141;50.414;8.050;2023-05-07T10:26:58;0.10;;;0.10;;
25187;SDS011;13141;50.414;8.050;2023-05-07T10:29:29;0.20;;;0.20;;
25187;SDS011;13141;50.414;8.050;2023-05-07T10:32:05;0.20;;;0.20;;
25187;SDS011;13141;50.414;8.050;2023-05-07T10:34:55;0.25;;;0.25;;
25187;SDS011;13141;50.414;8.050;2023-05-07T10:37:22;0.20;;;0.20;;
25187;SDS011;13141;50.414;8.050;2023-05-07T10:39:49;0.28;;;0.28;;
25187;SDS011;13141;50.414;8.050;2023-05-07T10:42:15;0.20;;;0.20;;
25187;SDS011;13141;50.414;8.050;2023-05-07T10:44:41;0.20;;;0.20;;
25187;SDS011;13141;50.414;8.050;2023-05-07T10:47:07;0.20;;;0.20;;
25187;SDS011;13141;50.414;8.050;2023-05-07T10:49:35;0.25;;;0.25;;
25187;SDS011;13141;50.414;8.050;2023-05-07T10:52:11;0.22;;;0.22;;
25187;SDS011;13141;50.414;8.050;2023-05-07T10:54:38;0.15;;;0.15;;
25187;SDS011;13141;50.414;8.050;2023-05-07T11:00:00;0.20;;;0.20;;
25187;SDS011;13141;50.414;8.050;2023-05-07T11:05:26;0.30;;;0.30;;
25187;SDS011;13141;50.414;8.050;2023-05-07T11:07:53;0.30;;;0.30;;
25187;SDS011;13141;50.414;8.050;2023-05-07T11:10:19;0.28;;;0.28;;
25187;SDS011;13141;50.414;8.050;2023-05-07T11:12:54;0.28;;;0.28;;
25187;SDS011;13141;50.414;8.050;2023-05-07T11:15:40;0.30;;;0.30;;
25187;SDS011;13141;50.414;8.050;2023-05-07T11:18:09;0.28;;;0.28;;
25187;SDS011;13141;50.414;8.050;2023-05-07T11:20:48;0.30;;;0.30;;
25187;SDS011;13141;50.414;8.050;2023-05-07T11:26:21;0.20;;;0.20;;
25187;SDS011;13141;50.414;8.050;2023-05-07T11:28:47;0.20;;;0.20;;
25187;SDS011;13141;50.414;8.050;2023-05-07T11:31:14;0.35;;;0.35;;
25187;SDS011;13141;50.414;8.050;2023-05-07T11:33:47;0.30;;;0.30;;
25187;SDS011;13141;50.414;8.050;2023-05-07T11:36:15;0.30;;;0.30;;
25187;SDS011;13141;50.414;8.050;2023-05-07T11:38:41;0.20;;;0.20;;
25187;SDS011;13141;50.414;8.050;2023-05-07T11:41:07;0.22;;;0.22;;
25187;SDS011;13141;50.414;8.050;2023-05-07T11:43:33;0.20;;;0.20;;
25187;SDS011;13141;50.414;8.050;2023-05-07T11:46:04;0.20;;;0.20;;
25187;SDS011;13141;50.414;8.050;2023-05-07T11:48:31;0.10;;;0.10;;
25187;SDS011;13141;50.414;8.050;2023-05-07T11:51:00;0.20;;;0.20;;
25187;SDS011;13141;50.414;8.050;2023-05-07T11:53:35;0.10;;;0.10;;
25187;SDS011;13141;50.414;8.050;2023-05-07T11:56:05;0.20;;;0.20;;
25187;SDS011;13141;50.414;8.050;2023-05-07T11:58:31;0.25;;;0.25;;
25187;SDS011;13141;50.414;8.050;2023-05-07T12:00:57;0.20;;;0.20;;
25187;SDS011;13141;50.414;8.050;2023-05-07T12:03:23;0.22;;;0.22;;
25187;SDS011;13141;50.414;8.050;2023-05-07T12:05:49;0.20;;;0.20;;
25187;SDS011;13141;50.414;8.050;2023-05-07T12:08:14;0.20;;;0.20;;
25187;SDS011;13141;50.414;8.050;2023-05-07T12:10:42;0.20;;;0.20;;
25187;SDS011;13141;50.414;8.050;2023-05-07T12:13:13;0.20;;;0.20;;
25187;SDS011;13141;50.414;8.050;2023-05-07T12:15:41;0.20;;;0.20;;
25187;SDS011;13141;50.414;8.050;2023-05-07T12:18:07;0.20;;;0.20;;
25187;SDS011;13141;50.414;8.050;2023-05-07T12:20:33;0.30;;;0.30;;
25187;SDS011;13141;50.414;8.050;2023-05-07T12:22:59;0.30;;;0.30;;
25187;SDS011;13141;50.414;8.050;2023-05-07T12:25:26;0.28;;;0.28;;
25187;SDS011;13141;50.414;8.050;2023-05-07T12:27:56;0.28;;;0.28;;
25187;SDS011;13141;50.414;8.050;2023-05-07T12:30:22;0.20;;;0.20;;
25187;SDS011;13141;50.414;8.050;2023-05-07T12:32:51;0.20;;;0.20;;
25187;SDS011;13141;50.414;8.050;2023-05-07T12:35:25;0.30;;;0.30;;
25187;SDS011;13141;50.414;8.050;2023-05-07T12:37:54;0.30;;;0.30;;
25187;SDS011;13141;50.414;8.050;2023-05-07T12:40:20;0.28;;;0.28;;
25187;SDS011;13141;50.414;8.050;2023-05-07T12:42:46;0.20;;;0.20;;
25187;SDS011;13141;50.414;8.050;2023-05-07T12:45:19;0.20;;;0.20;;
25187;SDS011;13141;50.414;8.050;2023-05-07T12:47:44;0.20;;;0.20;;
25187;SDS011;13141;50.414;8.050;2023-05-07T12:50:10;0.30;;;0.30;;
25187;SDS011;13141;50.414;8.050;2023-05-07T12:52:36;0.30;;;0.30;;
25187;SDS011;13141;50.414;8.050;2023-05-07T12:55:06;0.20;;;0.20;;
25187;SDS011;13141;50.414;8.050;2023-05-07T12:57:37;0.20;;;0.20;;
25187;SDS011;13141;50.414;8.050;2023-05-07T13:00:04;0.20;;;0.20;;
25187;SDS011;13141;50.414;8.050;2023-05-07T13:02:33;0.28;;;0.28;;
25187;SDS011;13141;50.414;8.050;2023-05-07T13:04:59;0.20;;;0.20;;
25187;SDS011;13141;50.414;8.050;2023-05-07T13:07:24;0.20;;;0.20;;
25187;SDS011;13141;50.414;8.050;2023-05-07T13:09:50;0.30;;;0.30;;
25187;SDS011;13141;50.414;8.050;2023-05-07T13:12:16;0.20;;;0.20;;
25187;SDS011;13141;50.414;8.050;2023-05-07T13:14:41;0.22;;;0.22;;
25187;SDS011;13141;50.414;8.050;2023-05-07T13:17:07;0.30;;;0.30;;
25187;SDS011;13141;50.414;8.050;2023-05-07T13:19:34;0.28;;;0.28;;
25187;SDS011;13141;50.414;8.050;2023-05-07T13:22:00;0.20;;;0.20;;
25187;SDS011;13141;50.414;8.050;2023-05-07T13:24:25;0.30;;;0.30;;
25187;SDS011;13141;50.414;8.050;2023-05-07T13:26:51;0.30;;;0.30;;
25187;SDS011;13141;50.414;8.050;2023-05-07T13:29:17;0.20;;;0.20;;
25187;SDS011;13141;50.414;8.050;2023-05-07T13:31:42;0.20;;;0.20;;
25187;SDS011;13141;50.414;8.050;2023-05-07T13:34:08;0.30;;;0.30;;
25187;SDS011;13141;50.414;8.050;2023-05-07T13:36:36;0.20;;;0.20;;
25187;SDS011;13141;50.414;8.050;2023-05-07T13:39:02;0.20;;;0.20;;
25187;SDS011;13141;50.414;8.050;2023-05-07T13:41:28;0.30;;;0.30;;
25187;SDS011;13141;50.414;8.050;2023-05-07T13:43:53;0.30;;;0.30;;
25187;SDS011;13141;50.414;8.050;2023-05-07T13:46:19;0.30;;;0.30;;
25187;SDS011;13141;50.414;8.050;2023-05-07T13:48:45;0.30;;;0.30;;
25187;SDS011;13141;50.414;8.050;2023-05-07T13:51:11;0.35;;;0.35;;
25187;SDS011;13141;50.414;8.050;2023-05-07T13:53:38;0.30;;;0.30;;
25187;SDS011;13141;50.414;8.050;2023-05-07T13:56:04;0.30;;;0.30;;
25187;SDS011;13141;50.414;8.050;2023-05-07T13:58:30;0.40;;;0.40;;
25187;SDS011;13141;50.414;8.050;2023-05-07T14:00:56;0.30;;;0.30;;
25187;SDS011;13141;50.414;8.050;2023-05-07T14:03:22;0.20;;;0.20;;
25187;SDS011;13141;50.414;8.050;2023-05-07T14:05:48;0.20;;;0.20;;
25187;SDS011;13141;50.414;8.050;2023-05-07T14:08:14;0.20;;;0.20;;
25187;SDS011;13141;50.414;8.050;2023-05-07T14:10:41;0.20;;;0.20;;
25187;SDS011;13141;50.414;8.050;2023-05-07T14:13:07;0.20;;;0.20;;
25187;SDS011;13141;50.414;8.050;2023-05-07T14:15:34;0.20;;;0.20;;
25187;SDS011;13141;50.414;8.050;2023-05-07T14:18:00;0.30;;;0.30;;
25187;SDS011;13141;50.414;8.050;2023-05-07T14:20:26;0.30;;;0.30;;
25187;SDS011;13141;50.414;8.050;2023-05-07T14:22:52;0.28;;;0.28;;
25187;SDS011;13141;50.414;8.050;2023-05-07T14:25:18;0.30;;;0.30;;
25187;SDS011;13141;50.414;8.050;2023-05-07T14:27:45;0.20;;;0.20;;
25187;SDS011;13141;50.414;8.050;2023-05-07T14:30:11;0.37;;;0.37;;
25187;SDS011;13141;50.414;8.050;2023-05-07T14:32:37;0.30;;;0.30;;
25187;SDS011;13141;50.414;8.050;2023-05-07T14:35:03;0.30;;;0.30;;
25187;SDS011;13141;50.414;8.050;2023-05-07T14:37:30;0.20;;;0.20;;
25187;SDS011;13141;50.414;8.050;2023-05-07T14:39:55;0.20;;;0.20;;
25187;SDS011;13141;50.414;8.050;2023-05-07T14:42:21;0.30;;;0.30;;
25187;SDS011;13141;50.414;8.050;2023-05-07T14:44:49;0.40;;;0.40;;
25187;SDS011;13141;50.414;8.050;2023-05-07T14:47:14;0.40;;;0.40;;
25187;SDS011;13141;50.414;8.050;2023-05-07T14:49:40;0.20;;;0.20;;
25187;SDS011;13141;50.414;8.050;2023-05-07T14:52:06;0.20;;;0.20;;
25187;SDS011;13141;50.414;8.050;2023-05-07T14:54:33;0.20;;;0.20;;
25187;SDS011;13141;50.414;8.050;2023-05-07T14:56:59;0.30;;;0.30;;
25187;SDS011;13141;50.414;8.050;2023-05-07T14:59:25;0.30;;;0.30;;
25187;SDS011;13141;50.414;8.050;2023-05-07T15:01:53;0.30;;;0.30;;
25187;SDS011;13141;50.414;8.050;2023-05-07T15:04:19;0.20;;;0.20;;
25187;SDS011;13141;50.414;8.050;2023-05-07T15:06:45;0.20;;;0.20;;
25187;SDS011;13141;50.414;8.050;2023-05-07T15:09:11;0.30;;;0.30;;
25187;SDS011;13141;50.414;8.050;2023-05-07T15:11:37;0.20;;;0.20;;
25187;SDS011;13141;50.414;8.050;2023-05-07T15:14:04;0.20;;;0.20;;
25187;SDS011;13141;50.414;8.050;2023-05-07T15:16:31;0.20;;;0.20;;